• Join FlightAware (Why Join?)
  • Login
  • US Flag 
02:02PM EST


 

Airport Tracker/Info


-or-


 

Live Flight TrackerFlight Track Log ✈ FDX1347 ✈ 30-Aug-2013 ✈ KALB - KMEM

Flight Track Log - Related Links

Times and Time Zones

All times are in EDT time to prevent confusion due to time zone crossing. See the FDX1347 flight status page for this flight to view local times or setup timezone preferences in your user account.

Time Position Orientation Groundspeed Altitude Reporting Facility
EDT Latitude Longitude Course Direction KTS MPH feet Rate Location/Type
09:54PM 42.7236 -73.8081 253° West 157 181 1,600  Level Boston Center
09:55PM 42.7058 -73.8894 253° West 250 288 4,000 2,280 Climbing Boston Center
10:01PM 42.6820 -74.5800 253° West 384 442 17,900 2,340 Climbing FlightAware
10:01PM 42.6730 -74.6090 247° West 386 444 18,300 2,100 Climbing FlightAware
10:01PM 42.6480 -74.6520 232° Southwest 396 456 19,100 1,920 Climbing FlightAware
10:02PM 42.6130 -74.6950 222° Southwest 402 463 19,900 1,740 Climbing FlightAware
10:02PM 42.5570 -74.7570 219° Southwest 411 473 21,000 1,860 Climbing FlightAware
10:03PM 42.5070 -74.8140 220° Southwest 415 478 22,100 1,800 Climbing FlightAware
10:04PM 42.4580 -74.8680 219° Southwest 422 486 23,100 1,680 Climbing FlightAware
10:04PM 42.4100 -74.9230 220° Southwest 429 494 24,000 1,800 Climbing FlightAware
10:05PM 42.3440 -75.0000 221° Southwest 435 501 25,300 1,620 Climbing FlightAware
10:05PM 42.3090 -75.0500 227° Southwest 438 504 25,900 1,620 Climbing FlightAware
10:06PM 42.2650 -75.1390 236° Southwest 442 509 27,100 1,560 Climbing FlightAware
10:07PM 42.2150 -75.2500 239° Southwest 458 527 28,200 1,440 Climbing FlightAware
10:07PM 42.1740 -75.3440 240° Southwest 466 536 29,200 1,560 Climbing FlightAware
10:08PM 42.1330 -75.4330 238° Southwest 471 542 30,100 1,800 Climbing FlightAware
10:09PM 42.0900 -75.5250 238° Southwest 469 540 31,400 2,040 Climbing FlightAware
10:09PM 42.0510 -75.6120 239° Southwest 466 536 32,600 1,980 Climbing FlightAware
10:10PM 42.0150 -75.7010 241° Southwest 464 534 33,700 2,100 Climbing FlightAware
10:10PM 41.9820 -75.7820 241° Southwest 457 526 35,000 2,460 Climbing FlightAware
10:11PM 41.9460 -75.8700 241° Southwest 443 510 36,500 1,980 Climbing FlightAware
10:11PM 41.9090 -75.9600 241° Southwest 441 507 37,500 1,260 Climbing FlightAware
10:12PM 41.8760 -76.0400 241° Southwest 446 513 38,000 1,020 Climbing FlightAware
10:13PM 41.8380 -76.1320 241° Southwest 447 514 38,700 1,500 Climbing FlightAware
10:13PM 41.8030 -76.2150 241° Southwest 431 496 39,900 1,200 Climbing FlightAware
10:14PM 41.7720 -76.2880 240° Southwest 423 487 40,100 180 Climbing FlightAware
10:14PM 41.7430 -76.3570 241° Southwest 424 488 40,100  Level FlightAware
10:15PM 41.7130 -76.4280 241° Southwest 428 493 40,100  Level FlightAware
10:16PM 41.6720 -76.5260 241° Southwest 431 496 40,100  Level FlightAware
10:16PM 41.6400 -76.6020 241° Southwest 433 498 40,100  Level FlightAware
10:17PM 41.6000 -76.6960 240° Southwest 435 501 40,100  Level FlightAware
10:17PM 41.5630 -76.7820 240° Southwest 436 502 40,100  Level FlightAware
10:18PM 41.5220 -76.8780 240° Southwest 437 503 40,100  Level FlightAware
10:19PM 41.4870 -76.9600 240° Southwest 439 505 40,100  Level FlightAware
10:19PM 41.4520 -77.0420 240° Southwest 439 505 40,100  Level FlightAware
10:20PM 41.4160 -77.1270 241° Southwest 439 505 40,100  Level FlightAware
10:20PM 41.3770 -77.2160 240° Southwest 438 504 40,100  Level FlightAware
10:21PM 41.3410 -77.3000 240° Southwest 438 504 40,100  Level FlightAware
10:22PM 41.3100 -77.3720 240° Southwest 438 504 40,100  Level FlightAware
10:22PM 41.2730 -77.4560 240° Southwest 437 503 40,100  Level FlightAware
10:23PM 41.2370 -77.5390 240° Southwest 436 502 40,100  Level FlightAware
10:23PM 41.2030 -77.6160 240° Southwest 436 502 40,100  Level FlightAware
10:24PM 41.1600 -77.7120 239° Southwest 434 499 40,100  Level FlightAware
10:25PM 41.1300 -77.7820 240° Southwest 433 498 40,100  Level FlightAware
10:25PM 41.0880 -77.8780 240° Southwest 432 497 40,100  Level FlightAware
10:26PM 41.0510 -77.9600 239° Southwest 432 497 40,100  Level FlightAware
10:26PM 41.0210 -78.0300 240° Southwest 431 496 40,100  Level FlightAware
10:27PM 40.9780 -78.1260 239° Southwest 431 496 40,100  Level FlightAware
10:28PM 40.9330 -78.2260 239° Southwest 431 496 40,100  Level FlightAware
10:28PM 40.9000 -78.3010 240° Southwest 431 496 40,100  Level FlightAware
10:29PM 40.8550 -78.4000 239° Southwest 430 495 40,100  Level FlightAware
10:30PM 40.8160 -78.4880 240° Southwest 429 494 40,100  Level FlightAware
10:30PM 40.7790 -78.5690 239° Southwest 428 493 40,100  Level FlightAware
10:31PM 40.7420 -78.6490 239° Southwest 427 491 40,100  Level FlightAware
10:31PM 40.7070 -78.7270 239° Southwest 427 491 40,100  Level FlightAware
10:32PM 40.6640 -78.8230 239° Southwest 427 491 40,100  Level FlightAware
10:33PM 40.6280 -78.9010 239° Southwest 426 490 40,100  Level FlightAware
10:33PM 40.5930 -78.9770 239° Southwest 427 491 40,100  Level FlightAware
10:34PM 40.5530 -79.0660 239° Southwest 427 491 40,100  Level FlightAware
10:35PM 40.5170 -79.1430 238° Southwest 427 491 40,100  Level FlightAware
10:35PM 40.4860 -79.2100 239° Southwest 427 491 40,100  Level FlightAware
10:36PM 40.4410 -79.3080 239° Southwest 428 493 40,100  Level FlightAware
10:36PM 40.4060 -79.3830 239° Southwest 428 493 40,100  Level FlightAware
10:37PM 40.3680 -79.4650 239° Southwest 429 494 40,100  Level FlightAware
10:38PM 40.3330 -79.5410 239° Southwest 430 495 40,100  Level FlightAware
10:38PM 40.2960 -79.6190 238° Southwest 431 496 40,100  Level FlightAware
10:39PM 40.2580 -79.6990 238° Southwest 432 497 40,100  Level FlightAware
10:39PM 40.2220 -79.7770 239° Southwest 432 497 40,100  Level FlightAware
10:40PM 40.1850 -79.8550 238° Southwest 433 498 40,100  Level FlightAware
10:41PM 40.1480 -79.9330 238° Southwest 435 501 40,100  Level FlightAware
10:41PM 40.1140 -80.0070 239° Southwest 436 502 40,100  Level FlightAware
10:42PM 40.0740 -80.0900 238° Southwest 437 503 40,100  Level FlightAware
10:42PM 40.0420 -80.1570 238° Southwest 437 503 40,100  Level FlightAware
10:43PM 40.0000 -80.2450 238° Southwest 437 503 40,100  Level FlightAware
10:43PM 39.9620 -80.3250 238° Southwest 439 505 40,100  Level FlightAware
10:44PM 39.9260 -80.3990 238° Southwest 439 505 40,100  Level FlightAware
10:45PM 39.8870 -80.4830 239° Southwest 439 505 40,100  Level FlightAware
10:45PM 39.8310 -80.5970 237° Southwest 440 506 40,100  Level FlightAware
10:46PM 39.7960 -80.6690 238° Southwest 440 506 40,100  Level FlightAware
10:47PM 39.7460 -80.7720 238° Southwest 440 506 40,100  Level FlightAware
10:48PM 39.7060 -80.8550 238° Southwest 441 507 40,100  Level FlightAware
10:48PM 39.6560 -80.9580 238° Southwest 443 510 40,100  Level FlightAware
10:49PM 39.6140 -81.0430 237° Southwest 444 511 40,100  Level FlightAware
10:49PM 39.5800 -81.1130 238° Southwest 446 513 40,100  Level FlightAware
10:50PM 39.5410 -81.1920 237° Southwest 446 513 40,100  Level FlightAware
10:50PM 39.4990 -81.2770 237° Southwest 445 512 40,100  Level FlightAware
10:51PM 39.4630 -81.3490 237° Southwest 445 512 40,100  Level FlightAware
10:52PM 39.4220 -81.4340 238° Southwest 444 511 40,100  Level FlightAware
10:52PM 39.3820 -81.5130 237° Southwest 444 511 40,100  Level FlightAware
10:53PM 39.3610 -81.5550 237° Southwest 444 511 40,100  Level FlightAware
10:53PM 39.3230 -81.6310 237° Southwest 443 510 40,100  Level FlightAware
10:54PM 39.2600 -81.7580 237° Southwest 444 511 40,100  Level FlightAware
10:55PM 39.2170 -81.8420 237° Southwest 446 513 40,100  Level FlightAware
10:55PM 39.1790 -81.9180 237° Southwest 446 513 40,100  Level FlightAware
10:56PM 39.1450 -81.9870 238° Southwest 446 513 40,100  Level FlightAware
10:56PM 39.1000 -82.0740 236° Southwest 446 513 40,100  Level FlightAware
10:57PM 39.0640 -82.1480 238° Southwest 447 514 40,100  Level FlightAware
10:58PM 39.0210 -82.2320 237° Southwest 447 514 40,100  Level FlightAware
10:58PM 38.9800 -82.3130 237° Southwest 447 514 40,100  Level FlightAware
10:59PM 38.9450 -82.3790 236° Southwest 447 514 40,100  Level FlightAware
10:59PM 38.9020 -82.4640 237° Southwest 447 514 40,100  Level FlightAware
11:00PM 38.8620 -82.5430 237° Southwest 447 514 40,100  Level FlightAware
11:00PM 38.8260 -82.6120 236° Southwest 447 514 40,100  Level FlightAware
11:01PM 38.7840 -82.6940 237° Southwest 449 517 40,100  Level FlightAware
11:02PM 38.7470 -82.7650 236° Southwest 449 517 40,100  Level FlightAware
11:02PM 38.7070 -82.8430 237° Southwest 449 517 40,100  Level FlightAware
11:03PM 38.6660 -82.9220 236° Southwest 448 516 40,100  Level FlightAware
11:03PM 38.6260 -83.0000 237° Southwest 448 516 40,100  Level FlightAware
11:04PM 38.5860 -83.0750 236° Southwest 450 518 40,100  Level FlightAware
11:05PM 38.5460 -83.1520 236° Southwest 449 517 40,100  Level FlightAware
11:05PM 38.4998 -83.2402 236° Southwest 451 519 40,100  Level FlightAware ADS-B
11:06PM 38.4292 -83.3751 236° Southwest 451 519 40,100  Level FlightAware ADS-B
11:07PM 38.3757 -83.4767 236° Southwest 453 521 40,100  Level FlightAware ADS-B
11:08PM 38.3370 -83.5500 236° Southwest 453 521 40,100  Level FlightAware
11:08PM 38.2950 -83.6270 235° Southwest 453 521 40,100  Level FlightAware
11:09PM 38.2600 -83.6930 236° Southwest 453 521 40,100  Level FlightAware
11:09PM 38.2160 -83.7770 236° Southwest 453 521 40,100  Level FlightAware
11:10PM 38.1730 -83.8590 236° Southwest 454 522 40,100  Level FlightAware
11:10PM 38.1320 -83.9340 235° Southwest 454 522 40,100  Level FlightAware
11:11PM 38.1010 -83.9920 236° Southwest 455 524 40,100  Level FlightAware
11:11PM 38.0570 -84.0730 235° Southwest 457 526 40,100  Level FlightAware
11:12PM 38.0140 -84.1550 236° Southwest 457 526 40,100  Level FlightAware
11:13PM 37.9776 -84.2217 235° Southwest 458 527 40,100  Level FlightAware ADS-B
11:13PM 37.9341 -84.3015 235° Southwest 459 528 40,100  Level FlightAware ADS-B
11:14PM 37.8975 -84.3680 235° Southwest 460 529 40,100  Level FlightAware ADS-B
11:14PM 37.8606 -84.4366 236° Southwest 460 529 40,100  Level FlightAware ADS-B
11:15PM 37.8236 -84.5054 236° Southwest 461 531 40,100  Level FlightAware ADS-B
11:15PM 37.7868 -84.5720 235° Southwest 462 532 40,100  Level FlightAware ADS-B
11:16PM 37.7499 -84.6386 235° Southwest 462 532 40,100  Level FlightAware ADS-B
11:16PM 37.7086 -84.7140 235° Southwest 462 532 40,100  Level FlightAware ADS-B
11:17PM 37.6632 -84.7982 236° Southwest 463 533 40,100  Level FlightAware ADS-B
11:17PM 37.6251 -84.8671 235° Southwest 464 534 40,100  Level FlightAware ADS-B
11:18PM 37.5737 -84.9606 235° Southwest 465 535 40,100  Level FlightAware ADS-B
11:19PM 37.5365 -85.0273 235° Southwest 465 535 40,100  Level FlightAware ADS-B
11:19PM 37.4960 -85.1010 235° Southwest 465 535 40,100  Level FlightAware
11:20PM 37.4710 -85.1449 234° Southwest 465 535 40,100  Level FlightAware ADS-B
11:20PM 37.4331 -85.2138 235° Southwest 466 536 40,100  Level FlightAware ADS-B
11:21PM 37.3957 -85.2802 235° Southwest 465 535 40,100  Level FlightAware ADS-B
11:21PM 37.3585 -85.3465 235° Southwest 465 535 40,100  Level FlightAware ADS-B
11:22PM 37.3220 -85.4130 235° Southwest 463 533 40,100  Level FlightAware
11:22PM 37.3104 -85.4326 233° Southwest 464 534 40,100  Level FlightAware ADS-B
11:23PM 37.2329 -85.5711 235° Southwest 464 534 40,100  Level FlightAware ADS-B
11:23PM 37.1890 -85.6480 234° Southwest 462 532 40,100  Level FlightAware
11:24PM 37.1633 -85.6937 235° Southwest 464 534 40,100  Level FlightAware ADS-B
11:24PM 37.1040 -85.7990 235° Southwest 463 533 40,100  Level FlightAware
11:25PM 37.0670 -85.8640 235° Southwest 464 534 40,100  Level FlightAware
11:25PM 37.0288 -85.9299 234° Southwest 465 535 40,100  Level FlightAware ADS-B
11:26PM 36.9892 -86.0001 235° Southwest 466 536 40,100  Level FlightAware ADS-B
11:27PM 36.9499 -86.0681 234° Southwest 468 539 40,100  Level FlightAware ADS-B
11:27PM 36.9119 -86.1363 235° Southwest 468 539 40,100  Level FlightAware ADS-B
11:28PM 36.8726 -86.2046 234° Southwest 470 541 40,100  Level FlightAware ADS-B
11:28PM 36.8341 -86.2705 234° Southwest 470 541 40,100  Level FlightAware ADS-B
11:29PM 36.7938 -86.3410 234° Southwest 470 541 40,100  Level FlightAware ADS-B
11:29PM 36.7543 -86.4093 234° Southwest 470 541 40,100  Level FlightAware ADS-B
11:30PM 36.7010 -86.5020 234° Southwest 470 541 40,100  Level FlightAware
11:30PM 36.6560 -86.5810 235° Southwest 470 541 40,100  Level FlightAware
11:31PM 36.6140 -86.6510 233° Southwest 472 543 40,100  Level FlightAware
11:32PM 36.5680 -86.7300 234° Southwest 472 543 40,100  Level FlightAware
11:32PM 36.5220 -86.8090 234° Southwest 472 543 40,100  Level FlightAware
11:33PM 36.4780 -86.8840 234° Southwest 472 543 40,100  Level FlightAware
11:33PM 36.4300 -86.9670 234° Southwest 471 542 40,100  Level FlightAware
11:34PM 36.3890 -87.0370 234° Southwest 472 543 40,100  Level FlightAware
11:34PM 36.3500 -87.1030 234° Southwest 472 543 40,100  Level FlightAware
11:35PM 36.3050 -87.1790 234° Southwest 471 542 40,100  Level FlightAware
11:35PM 36.2630 -87.2490 233° Southwest 472 543 40,100  Level FlightAware
11:36PM 36.2160 -87.3300 234° Southwest 472 543 40,100  Level FlightAware
11:37PM 36.1690 -87.4080 233° Southwest 472 543 40,100  Level FlightAware
11:37PM 36.1310 -87.4710 233° Southwest 472 543 40,100  Level FlightAware
11:38PM 36.0790 -87.5580 234° Southwest 472 543 40,100  Level FlightAware
11:38PM 36.0330 -87.6360 234° Southwest 473 544 40,100 -420 Level FlightAware
11:39PM 35.9830 -87.7190 233° Southwest 475 547 39,600 -1,620 Descending FlightAware
11:40PM 35.9330 -87.8020 233° Southwest 479 551 38,100 -2,460 Descending FlightAware
11:40PM 35.8880 -87.8770 233° Southwest 481 554 36,700 -2,640 Descending FlightAware
11:41PM 35.8130 -88.0020 234° Southwest 474 545 34,100 -1,680 Descending FlightAware
11:42PM 35.7630 -88.0820 232° Southwest 473 544 33,900 -180 Descending FlightAware
11:43PM 35.7250 -88.1440 233° Southwest 473 544 33,900  Level FlightAware
11:43PM 35.6850 -88.2100 233° Southwest 473 544 33,900  Level FlightAware
11:44PM 35.6450 -88.2760 233° Southwest 473 544 33,900  Level FlightAware
11:44PM 35.6040 -88.3420 233° Southwest 473 544 33,900  Level FlightAware
11:45PM 35.5630 -88.4090 233° Southwest 473 544 33,900  Level FlightAware
11:46PM 35.5230 -88.4750 233° Southwest 473 544 33,900  Level FlightAware
11:46PM 35.4800 -88.5440 233° Southwest 473 544 33,900  Level FlightAware
11:47PM 35.4400 -88.6100 233° Southwest 473 544 33,900  Level FlightAware
11:47PM 35.3970 -88.6790 233° Southwest 473 544 33,900  Level FlightAware
11:48PM 35.3560 -88.7470 234° Southwest 473 544 33,900  Level FlightAware
11:49PM 35.3170 -88.8100 233° Southwest 473 544 33,900  Level FlightAware
11:49PM 35.2750 -88.8780 233° Southwest 473 544 33,900  Level FlightAware
11:50PM 35.2340 -88.9450 233° Southwest 473 544 33,900  Level FlightAware
11:50PM 35.1930 -89.0100 232° Southwest 473 544 33,900  Level FlightAware
11:51PM 35.1520 -89.0780 234° Southwest 473 544 33,900 -13,920 Level FlightAware
11:52PM 35.0344 -89.1219 234° Southwest 293 337 9,600 -12,180 Descending Memphis Center
11:53PM 35.0375 -89.2183 272° West 288 331 8,000 -1,620 Descending Memphis Center
11:54PM 35.0383 -89.3147 271° West 288 331 6,400 -1,500 Descending Memphis Center
11:55PM 35.0411 -89.4086 272° West 282 325 5,100 -1,200 Descending Memphis Center
11:56PM 35.0461 -89.4997 274° West 269 310 4,000 -600 Descending Memphis Center
11:57PM 35.0486 -89.5886 272° West 269 310 4,000 -420 Level Memphis Center
11:58PM 35.0514 -89.6797 272° West 269 310 3,200 -540 Descending Memphis Center
11:59PM 35.0539 -89.7611 272° West 257 296 3,000 -480 Descending Memphis Center
12:00AM 35.0564 -89.8369 272° West 224 258 2,300 -840 Descending Memphis Center
12:01AM 35.0564 -89.8903 270° West 182 209 1,400 -780 Descending Memphis Center
12:02AM 35.0589 -89.9333 274° West 148 170 800 -480 Descending Memphis Center
12:03AM 35.0589 -89.9767 270° West 128 147 500 17,100 Descending Memphis Center
12:04AM 35.0589 -90.0197 270° West 128 147 35,000 34,500 Climbing Memphis Center